Time;durP1;ratioP1;P1;durP2;ratioP2;P2;SDS_P1;SDS_P2;PMS_P1;PMS_P2;Temp;Humidity;BMP_temperature;BMP_pressure;BME280_temperature;BME280_humidity;BME280_pressure;Samples;Min_cycle;Max_cycle;Signal;HPM_P1;HPM_P2
2021/09/05 00:04:58;;;;;;;10.27;9.17;;;22.70;57.60;;;;;;6203905;23;20409;-86
2021/09/05 00:07:23;;;;;;;11.27;9.60;;;22.70;57.70;;;;;;6171546;23;20446;-86
2021/09/05 00:09:49;;;;;;;14.77;12.23;;;22.70;57.70;;;;;;6197355;23;20152;-86
2021/09/05 00:12:15;;;;;;;11.17;9.77;;;22.70;57.70;;;;;;6171448;23;20591;-87
2021/09/05 00:14:41;;;;;;;13.00;11.00;;;22.70;57.60;;;;;;6171583;23;20410;-87
2021/09/05 00:17:07;;;;;;;13.70;10.23;;;22.70;57.50;;;;;;6197665;23;20167;-87
2021/09/05 00:19:33;;;;;;;12.10;10.63;;;22.70;57.50;;;;;;6172459;23;20846;-87
2021/09/05 00:21:59;;;;;;;11.43;10.23;;;22.70;57.50;;;;;;6147278;23;20218;-87
2021/09/05 00:24:24;;;;;;;12.30;11.00;;;22.70;57.50;;;;;;6200837;23;20172;-86
2021/09/05 00:26:50;;;;;;;13.77;11.77;;;22.70;57.50;;;;;;6176195;23;20190;-87
2021/09/05 00:29:18;;;;;;;13.23;11.00;;;22.70;57.50;;;;;;6176968;23;20159;-87
2021/09/05 00:31:44;;;;;;;13.07;11.77;;;22.70;57.50;;;;;;6203231;23;20460;-86
2021/09/05 00:34:11;;;;;;;12.80;11.17;;;22.70;57.50;;;;;;6177179;23;20375;-87
2021/09/05 00:36:37;;;;;;;11.33;9.93;;;22.70;57.50;;;;;;6148078;23;20186;-87
2021/09/05 00:39:05;;;;;;;12.47;11.10;;;22.60;57.40;;;;;;6175122;23;20387;-87
2021/09/05 00:41:31;;;;;;;12.53;11.33;;;22.60;57.40;;;;;;6175805;23;20911;-87
2021/09/05 00:44:03;;;;;;;12.30;11.00;;;22.70;57.50;;;;;;6171755;23;20422;-87
2021/09/05 00:46:34;;;;;;;12.07;10.77;;;22.70;57.50;;;;;;6171677;23;20376;-87
2021/09/05 00:49:02;;;;;;;13.20;11.47;;;22.60;57.40;;;;;;6171185;23;20391;-87
2021/09/05 00:51:37;;;;;;;14.87;11.97;;;22.70;57.50;;;;;;6171668;23;20406;-85
2021/09/05 00:54:05;;;;;;;15.43;12.83;;;22.60;57.40;;;;;;6172166;23;20407;-85
2021/09/05 00:56:33;;;;;;;14.20;12.13;;;22.60;57.40;;;;;;6171567;23;20383;-85
2021/09/05 00:59:07;;;;;;;14.87;13.30;;;22.60;57.40;;;;;;6171321;23;20390;-85
2021/09/05 01:01:36;;;;;;;13.33;11.73;;;22.70;57.40;;;;;;6197189;23;20372;-85
2021/09/05 01:04:03;;;;;;;13.63;11.10;;;22.60;57.30;;;;;;6172170;23;20787;-84
2021/09/05 01:06:34;;;;;;;14.67;13.10;;;22.60;57.30;;;;;;6210079;23;20405;-84
2021/09/05 01:09:01;;;;;;;16.63;11.63;;;22.60;57.30;;;;;;6229818;23;20473;-84
2021/09/05 01:11:27;;;;;;;13.27;11.60;;;22.60;57.40;;;;;;6231082;23;20378;-84
2021/09/05 01:13:56;;;;;;;12.97;11.60;;;22.60;57.30;;;;;;6232382;23;20373;-85
2021/09/05 01:16:48;;;;;;;15.40;12.57;;;22.60;57.30;;;;;;6227936;23;20899;-85
2021/09/05 01:19:20;;;;;;;14.50;12.90;;;22.60;57.30;;;;;;6227830;23;20420;-85
2021/09/05 01:21:47;;;;;;;15.57;13.17;;;22.60;57.30;;;;;;6228014;23;20386;-85
2021/09/05 01:24:15;;;;;;;16.33;13.10;;;22.60;57.30;;;;;;6228975;23;20417;-86
2021/09/05 01:26:53;;;;;;;14.60;12.90;;;22.60;57.30;;;;;;6228342;23;20382;-86
2021/09/05 01:29:30;;;;;;;16.60;12.90;;;22.60;57.30;;;;;;6202717;23;20390;-85
2021/09/05 01:31:56;;;;;;;15.70;13.27;;;22.60;57.30;;;;;;6228038;23;20382;-85
2021/09/05 01:34:24;;;;;;;14.23;12.13;;;22.60;57.30;;;;;;6228507;23;20155;-86
2021/09/05 01:43:34;;;;;;;16.80;14.20;;;22.50;57.20;;;;;;6194804;23;20434;-85
2021/09/05 01:46:00;;;;;;;17.47;13.97;;;22.50;57.30;;;;;;6172372;23;20391;-85
2021/09/05 01:48:29;;;;;;;15.93;13.40;;;22.50;57.40;;;;;;6174674;23;20152;-85
2021/09/05 01:50:54;;;;;;;14.63;13.07;;;22.50;57.30;;;;;;6170481;23;20152;-85
2021/09/05 01:56:42;;;;;;;13.40;12.00;;;22.60;57.30;;;;;;6198087;23;20135;-85
2021/09/05 01:59:07;;;;;;;16.83;13.70;;;22.50;57.30;;;;;;6170427;23;20391;-85
2021/09/05 02:01:37;;;;;;;18.00;12.90;;;22.50;57.30;;;;;;6174130;23;20633;-85
2021/09/05 02:04:04;;;;;;;14.57;12.80;;;22.50;57.30;;;;;;6171255;23;20230;-85
2021/09/05 02:06:33;;;;;;;16.83;13.17;;;22.50;57.20;;;;;;6194700;23;20395;-85
2021/09/05 02:08:58;;;;;;;15.50;13.60;;;22.50;57.20;;;;;;6168720;23;20810;-85
2021/09/05 02:11:25;;;;;;;15.93;13.50;;;22.50;57.20;;;;;;6213776;23;20374;-85
2021/09/05 02:13:58;;;;;;;15.30;13.57;;;22.50;57.20;;;;;;6225063;23;20151;-86
2021/09/05 02:16:24;;;;;;;16.00;13.70;;;22.50;57.20;;;;;;6200614;23;20469;-85
2021/09/05 02:22:12;;;;;;;17.90;15.20;;;22.50;57.10;;;;;;6226234;23;20578;-86
2021/09/05 02:24:38;;;;;;;15.80;14.00;;;22.50;57.20;;;;;;6225235;23;20425;-85
2021/09/05 02:27:04;;;;;;;17.57;13.67;;;22.50;57.10;;;;;;6225675;23;20151;-85
2021/09/05 02:29:30;;;;;;;14.93;13.40;;;22.50;57.10;;;;;;6225629;23;20378;-85
2021/09/05 02:31:58;;;;;;;18.43;14.30;;;22.50;57.00;;;;;;6225314;23;20155;-85
2021/09/05 02:34:24;;;;;;;17.70;14.57;;;22.50;57.00;;;;;;6226471;23;20159;-85
2021/09/05 02:36:50;;;;;;;16.83;14.53;;;22.60;57.00;;;;;;6225089;23;20393;-85
2021/09/05 02:39:16;;;;;;;15.10;13.37;;;22.60;56.90;;;;;;6224861;23;20162;-85
2021/09/05 02:41:41;;;;;;;17.80;15.07;;;22.60;56.90;;;;;;6226514;23;20191;-85
2021/09/05 02:44:07;;;;;;;16.07;13.90;;;22.60;56.90;;;;;;6224690;23;20202;-86
2021/09/05 02:49:55;;;;;;;18.57;14.53;;;22.60;56.80;;;;;;6227340;23;20346;-86
2021/09/05 02:52:22;;;;;;;17.23;14.30;;;22.60;56.80;;;;;;6229154;23;20374;-86
2021/09/05 02:58:13;;;;;;;16.80;14.53;;;22.60;56.80;;;;;;6230461;23;20373;-85
2021/09/05 03:00:38;;;;;;;19.37;15.57;;;22.60;56.80;;;;;;6229847;23;20370;-85
2021/09/05 03:03:04;;;;;;;15.50;13.50;;;22.60;56.80;;;;;;6230665;23;20468;-86
2021/09/05 03:05:30;;;;;;;15.10;13.50;;;22.60;56.80;;;;;;6221291;23;20156;-85
2021/09/05 03:07:56;;;;;;;14.70;12.70;;;22.60;56.80;;;;;;6172364;23;20148;-85
2021/09/05 03:10:24;;;;;;;14.40;12.60;;;22.60;56.80;;;;;;6172404;23;20152;-86
2021/09/05 03:12:50;;;;;;;15.90;13.23;;;22.60;56.70;;;;;;6174637;23;20211;-85
2021/09/05 03:15:18;;;;;;;16.43;13.40;;;22.60;56.70;;;;;;6171849;23;20386;-85
2021/09/05 03:17:45;;;;;;;19.83;15.70;;;22.60;56.70;;;;;;6172852;23;20162;-84
2021/09/05 03:20:12;;;;;;;16.20;13.63;;;22.60;56.60;;;;;;6172670;23;20387;-85
2021/09/05 03:22:38;;;;;;;20.83;15.07;;;22.60;56.60;;;;;;6172625;23;20759;-85
2021/09/05 03:25:05;;;;;;;24.23;17.50;;;22.60;56.60;;;;;;6148008;23;20387;-85
2021/09/05 03:27:34;;;;;;;17.67;14.83;;;22.60;56.60;;;;;;6198711;23;20151;-85
2021/09/05 03:30:00;;;;;;;18.70;15.00;;;22.60;57.10;;;;;;6172302;23;20439;-85
2021/09/05 03:32:25;;;;;;;18.30;15.20;;;22.60;56.50;;;;;;6172857;23;20394;-85
2021/09/05 03:38:13;;;;;;;19.30;15.27;;;22.60;56.50;;;;;;6199326;23;20183;-85
2021/09/05 03:40:39;;;;;;;20.40;15.50;;;22.60;56.60;;;;;;6172546;23;20842;-85
2021/09/05 03:43:05;;;;;;;17.37;15.03;;;22.60;56.60;;;;;;6199349;23;20175;-85
2021/09/05 03:45:30;;;;;;;17.90;15.13;;;22.60;56.50;;;;;;6173833;23;20159;-85
2021/09/05 03:47:56;;;;;;;17.73;15.17;;;22.60;56.50;;;;;;6172949;23;20159;-85
2021/09/05 03:50:22;;;;;;;18.70;15.53;;;22.60;56.50;;;;;;6199217;23;20148;-85
2021/09/05 03:52:47;;;;;;;19.53;15.30;;;22.60;56.50;;;;;;6172779;23;20179;-85
2021/09/05 03:55:13;;;;;;;19.57;14.97;;;22.60;56.50;;;;;;6198999;23;20235;-85
2021/09/05 03:57:39;;;;;;;22.90;14.73;;;22.60;56.50;;;;;;6199450;23;20151;-85
2021/09/05 04:00:05;;;;;;;20.00;16.50;;;22.60;56.50;;;;;;6148401;23;20159;-84
2021/09/05 04:02:31;;;;;;;18.53;15.37;;;22.60;56.50;;;;;;6198262;23;20221;-85
2021/09/05 04:04:56;;;;;;;19.07;15.30;;;22.60;56.50;;;;;;6198304;23;20371;-85
2021/09/05 04:07:22;;;;;;;21.23;16.83;;;22.60;56.50;;;;;;6198064;23;20144;-85
2021/09/05 04:12:33;;;;;;;19.50;16.07;;;22.60;56.50;;;;;;6198698;23;20375;-85
2021/09/05 04:14:58;;;;;;;17.77;14.97;;;22.50;56.40;;;;;;6198059;23;20371;-84
2021/09/05 04:17:24;;;;;;;19.57;15.37;;;22.50;56.40;;;;;;6172355;23;20156;-84
2021/09/05 04:19:49;;;;;;;18.10;14.97;;;22.50;56.40;;;;;;6171955;23;20155;-84
2021/09/05 04:22:15;;;;;;;19.00;15.80;;;22.50;56.40;;;;;;6172398;23;20171;-84
2021/09/05 04:24:41;;;;;;;21.23;17.30;;;22.50;56.40;;;;;;6197465;23;20222;-84
2021/09/05 04:27:07;;;;;;;20.10;15.63;;;22.50;56.40;;;;;;6171984;23;20610;-84
2021/09/05 04:29:32;;;;;;;21.23;16.50;;;22.50;56.40;;;;;;6172496;23;20148;-84
2021/09/05 04:31:58;;;;;;;19.57;15.13;;;22.50;56.30;;;;;;6198921;23;20223;-84
2021/09/05 04:34:24;;;;;;;22.97;16.23;;;22.60;56.40;;;;;;6198616;23;20199;-84
2021/09/05 04:36:50;;;;;;;21.23;15.60;;;22.60;56.30;;;;;;6197811;23;20617;-84
2021/09/05 04:39:15;;;;;;;18.00;15.00;;;22.60;56.30;;;;;;6198034;23;20853;-85
2021/09/05 04:41:41;;;;;;;18.30;15.57;;;22.60;56.30;;;;;;6198407;23;20256;-84
2021/09/05 04:44:07;;;;;;;19.20;15.47;;;22.60;56.30;;;;;;6172155;23;20358;-84
2021/09/05 04:46:32;;;;;;;17.97;14.80;;;22.60;56.30;;;;;;6172667;23;20158;-84
2021/09/05 04:48:58;;;;;;;18.27;14.97;;;22.60;56.30;;;;;;6173210;23;20158;-85
2021/09/05 04:51:24;;;;;;;19.97;15.80;;;22.60;56.20;;;;;;6172695;23;20151;-85
2021/09/05 04:53:50;;;;;;;20.23;15.73;;;22.60;56.20;;;;;;6198268;23;20147;-85
2021/09/05 04:56:15;;;;;;;19.23;16.13;;;22.60;56.20;;;;;;6198611;23;20154;-84
2021/09/05 04:58:42;;;;;;;19.80;15.33;;;22.60;56.20;;;;;;6173035;23;20211;-84
2021/09/05 05:01:07;;;;;;;19.93;14.83;;;22.60;56.20;;;;;;6198152;23;20152;-85
2021/09/05 05:03:33;;;;;;;18.97;15.30;;;22.60;56.20;;;;;;6197639;23;20422;-84
2021/09/05 05:06:05;;;;;;;18.50;14.87;;;22.60;56.10;;;;;;6199789;23;20186;-84
2021/09/05 05:08:30;;;;;;;18.93;16.20;;;22.60;56.10;;;;;;6174102;23;20447;-84
2021/09/05 05:10:56;;;;;;;17.73;14.83;;;22.60;56.40;;;;;;6173809;23;20380;-84
2021/09/05 05:13:21;;;;;;;17.90;14.40;;;22.60;56.10;;;;;;6200424;23;20147;-84
2021/09/05 05:15:47;;;;;;;18.47;13.93;;;22.60;56.10;;;;;;6172982;23;20160;-84
2021/09/05 05:18:13;;;;;;;18.07;15.30;;;22.60;56.10;;;;;;6173518;23;20482;-84
2021/09/05 05:20:47;;;;;;;15.60;13.67;;;22.60;56.10;;;;;;6173361;23;20151;-84
2021/09/05 05:23:12;;;;;;;16.60;14.00;;;22.60;56.10;;;;;;6200273;23;20164;-84
2021/09/05 05:25:38;;;;;;;22.43;15.73;;;22.70;56.10;;;;;;6173513;23;20475;-84
2021/09/05 05:28:04;;;;;;;21.47;16.27;;;22.60;56.00;;;;;;6174399;23;20559;-84
2021/09/05 05:30:30;;;;;;;17.07;13.57;;;22.70;56.10;;;;;;6199410;23;20144;-84
2021/09/05 05:32:58;;;;;;;19.70;16.43;;;22.60;56.00;;;;;;6199725;23;20148;-84
2021/09/05 05:35:24;;;;;;;20.13;16.00;;;22.70;56.10;;;;;;6173431;23;20155;-84
2021/09/05 05:37:50;;;;;;;17.13;14.87;;;22.70;56.00;;;;;;6172399;23;20375;-84
2021/09/05 05:40:25;;;;;;;21.10;15.83;;;22.70;56.00;;;;;;6198894;23;20397;-84
2021/09/05 05:42:52;;;;;;;20.87;15.50;;;22.60;55.90;;;;;;6172958;23;20231;-84
2021/09/05 05:45:18;;;;;;;18.60;14.57;;;22.60;55.90;;;;;;6172352;23;20378;-84
2021/09/05 05:47:47;;;;;;;17.40;15.30;;;22.60;55.90;;;;;;6172793;23;20385;-84
2021/09/05 05:50:16;;;;;;;18.73;15.50;;;22.70;56.00;;;;;;6173878;23;20152;-85
2021/09/05 05:52:42;;;;;;;16.13;13.50;;;22.70;56.00;;;;;;6199142;23;20375;-85
2021/09/05 05:55:08;;;;;;;18.23;14.60;;;22.70;56.00;;;;;;6172548;23;20470;-84
2021/09/05 05:57:34;;;;;;;16.53;13.93;;;22.70;56.00;;;;;;6172773;23;20151;-84
2021/09/05 05:59:59;;;;;;;17.93;15.00;;;22.70;56.00;;;;;;6173043;23;20393;-84
2021/09/05 06:02:25;;;;;;;17.80;14.30;;;22.70;55.90;;;;;;6198657;23;20140;-84
2021/09/05 06:04:51;;;;;;;17.90;14.70;;;22.70;55.90;;;;;;6172277;23;20171;-84
2021/09/05 06:07:17;;;;;;;17.73;13.53;;;22.70;56.00;;;;;;6199869;23;20160;-83
2021/09/05 06:09:42;;;;;;;18.33;14.83;;;22.70;56.00;;;;;;6174262;23;20579;-84
2021/09/05 06:12:21;;;;;;;15.20;12.87;;;22.70;55.90;;;;;;6173795;23;20151;-84
2021/09/05 06:14:47;;;;;;;15.73;12.67;;;22.70;55.90;;;;;;6173605;23;20148;-84
2021/09/05 06:17:13;;;;;;;18.07;14.53;;;22.70;55.90;;;;;;6171916;23;20391;-84
2021/09/05 06:19:41;;;;;;;18.97;14.50;;;22.70;56.00;;;;;;6173290;23;20174;-83
2021/09/05 06:22:07;;;;;;;16.87;14.03;;;22.70;55.90;;;;;;6173179;23;20158;-83
2021/09/05 06:25:08;;;;;;;18.07;14.40;;;22.70;55.90;;;;;;6173221;23;20423;-83
2021/09/05 06:27:34;;;;;;;16.53;12.87;;;22.80;56.00;;;;;;6200989;23;20191;-84
2021/09/05 06:30:02;;;;;;;12.60;11.13;;;22.70;55.90;;;;;;6149142;23;20437;-83
2021/09/05 06:32:28;;;;;;;16.97;12.83;;;22.70;56.00;;;;;;6173680;23;20151;-84
2021/09/05 06:35:02;;;;;;;14.43;12.70;;;22.70;56.00;;;;;;6174557;23;20371;-84
2021/09/05 06:37:28;;;;;;;13.23;11.80;;;22.70;56.00;;;;;;6149996;23;20371;-84
2021/09/05 06:39:54;;;;;;;11.87;10.63;;;22.70;56.00;;;;;;6200692;23;20371;-84
2021/09/05 06:42:20;;;;;;;13.87;12.47;;;22.70;56.00;;;;;;6173616;23;20179;-84
2021/09/05 06:44:54;;;;;;;14.80;12.60;;;22.80;56.10;;;;;;6200438;23;20189;-84
2021/09/05 06:47:20;;;;;;;14.93;12.10;;;22.80;56.10;;;;;;6174086;23;20450;-85
2021/09/05 06:49:46;;;;;;;11.20;10.10;;;22.80;56.60;;;;;;6173465;23;20414;-85
2021/09/05 06:52:12;;;;;;;11.33;10.13;;;22.80;56.10;;;;;;6173503;23;20812;-85
2021/09/05 06:54:38;;;;;;;11.03;9.80;;;22.80;56.10;;;;;;6173963;23;20156;-85
2021/09/05 06:57:06;;;;;;;13.00;10.13;;;22.80;56.10;;;;;;6199561;23;20655;-85
2021/09/05 06:59:32;;;;;;;12.77;11.33;;;22.80;56.00;;;;;;6173502;23;20379;-86
2021/09/05 07:01:58;;;;;;;13.80;11.57;;;22.80;56.00;;;;;;6199814;23;20382;-85
2021/09/05 07:04:24;;;;;;;13.60;10.97;;;22.80;56.00;;;;;;6199367;23;20177;-85
2021/09/05 07:06:52;;;;;;;12.20;10.07;;;22.80;56.00;;;;;;6215181;23;20610;-86
2021/09/05 07:09:20;;;;;;;12.20;9.60;;;22.80;56.00;;;;;;6228808;23;20159;-85
2021/09/05 07:11:48;;;;;;;12.87;11.50;;;22.80;56.10;;;;;;6254646;23;20760;-85
2021/09/05 07:14:14;;;;;;;11.83;10.63;;;22.80;56.00;;;;;;6228923;23;20375;-86
2021/09/05 07:16:40;;;;;;;12.43;10.97;;;22.80;56.00;;;;;;6228062;23;20748;-85
2021/09/05 07:19:06;;;;;;;12.40;10.63;;;22.80;56.00;;;;;;6230579;23;20193;-85
2021/09/05 07:21:31;;;;;;;12.10;10.80;;;22.80;56.00;;;;;;6230070;23;20370;-85
2021/09/05 07:24:00;;;;;;;13.53;11.37;;;22.90;56.10;;;;;;6229488;23;20202;-85
2021/09/05 07:26:26;;;;;;;13.23;11.50;;;22.90;56.10;;;;;;6229148;23;20158;-86
2021/09/05 07:28:52;;;;;;;14.70;12.50;;;22.80;56.00;;;;;;6229734;23;20378;-85
2021/09/05 07:31:18;;;;;;;16.87;12.90;;;22.90;56.10;;;;;;6228758;23;20170;-85
2021/09/05 07:33:46;;;;;;;13.77;12.27;;;22.80;56.00;;;;;;6230493;23;20166;-85
2021/09/05 07:36:12;;;;;;;14.57;12.27;;;22.90;56.10;;;;;;6228488;23;20238;-85
2021/09/05 07:38:53;;;;;;;13.27;11.63;;;22.90;56.10;;;;;;6228596;23;20386;-85
2021/09/05 07:41:22;;;;;;;11.53;10.33;;;22.90;56.10;;;;;;6229351;23;20218;-85
2021/09/05 07:44:06;;;;;;;13.27;11.83;;;22.80;56.10;;;;;;6229395;23;20410;-86
2021/09/05 07:46:35;;;;;;;12.23;9.90;;;22.90;56.10;;;;;;6228550;23;20516;-85
2021/09/05 07:49:04;;;;;;;14.90;10.47;;;22.90;56.20;;;;;;6254026;23;20387;-84
2021/09/05 07:51:35;;;;;;;10.47;9.47;;;22.90;56.20;;;;;;6229160;23;20374;-84
2021/09/05 07:54:00;;;;;;;11.40;10.20;;;22.90;56.20;;;;;;6230164;23;20413;-84
2021/09/05 07:56:32;;;;;;;12.33;11.13;;;22.90;56.10;;;;;;6231994;23;20809;-85
2021/09/05 07:59:11;;;;;;;13.13;11.30;;;22.90;56.10;;;;;;6229098;23;20186;-85
2021/09/05 08:08:24;;;;;;;11.87;10.30;;;22.90;56.20;;;;;;6138089;23;20388;-84
2021/09/05 08:17:04;;;;;;;11.30;10.10;;;22.90;56.20;;;;;;6137233;23;20396;-84
2021/09/05 08:19:33;;;;;;;12.27;10.97;;;22.90;56.30;;;;;;6137964;23;20385;-84
2021/09/05 08:22:12;;;;;;;14.30;12.23;;;22.90;56.30;;;;;;6137684;23;20871;-85
2021/09/05 08:25:10;;;;;;;;;;;;;;;;;;;;;
2021/09/05 10:07:02;;;;;;;10.67;9.53;;;22.90;56.70;;;;;;6021881;23;20379;-85
2021/09/05 10:09:29;;;;;;;10.83;9.57;;;22.90;56.70;;;;;;6025454;23;20898;-84
2021/09/05 10:12:06;;;;;;;;;;;;;;;;;;;;;
2021/09/05 10:14:33;;;;;;;11.70;10.50;;;22.90;56.70;;;;;;6027127;23;20384;-85
2021/09/05 10:16:59;;;;;;;12.70;10.43;;;22.90;56.70;;;;;;6025475;23;20424;-84
2021/09/05 10:19:25;;;;;;;11.50;10.00;;;23.00;56.70;;;;;;6139784;23;20385;-85
2021/09/05 10:21:51;;;;;;;10.83;9.73;;;23.00;56.70;;;;;;6115739;23;20785;-84
2021/09/05 10:24:18;;;;;;;11.63;10.40;;;23.00;56.70;;;;;;6140194;23;20420;-84
2021/09/05 10:27:14;;;;;;;11.40;10.20;;;23.00;56.70;;;;;;6161733;23;20161;-84
2021/09/05 10:30:13;;;;;;;11.00;9.47;;;23.10;56.70;;;;;;6220781;23;20385;-84
2021/09/05 10:33:04;;;;;;;10.70;9.60;;;23.00;56.70;;;;;;6232257;23;20860;-84
2021/09/05 10:35:51;;;;;;;10.90;9.17;;;23.00;56.70;;;;;;6255171;23;20382;-85
2021/09/05 10:38:22;;;;;;;10.30;9.27;;;23.10;56.80;;;;;;6231229;23;20386;-84
2021/09/05 10:40:50;;;;;;;10.40;9.40;;;23.00;56.70;;;;;;6230265;23;20391;-83
2021/09/05 10:43:16;;;;;;;11.07;9.30;;;23.00;56.70;;;;;;6231729;23;20410;-84
2021/09/05 10:45:52;;;;;;;10.20;9.20;;;23.00;56.70;;;;;;6229604;23;20362;-84
2021/09/05 10:48:43;;;;;;;8.93;8.03;;;23.00;56.60;;;;;;6226953;23;20489;-84
2021/09/05 10:51:18;;;;;;;8.90;8.00;;;23.10;56.70;;;;;;6226145;23;20386;-84
2021/09/05 10:54:14;;;;;;;11.03;9.10;;;23.10;56.70;;;;;;6230716;23;20472;-84
2021/09/05 10:56:57;;;;;;;9.50;8.43;;;23.10;56.70;;;;;;6083745;23;20453;-84
2021/09/05 10:59:32;;;;;;;10.17;9.17;;;23.10;56.80;;;;;;6085815;23;20400;-84
2021/09/05 11:02:06;;;;;;;9.47;8.43;;;23.00;56.70;;;;;;6110766;23;20381;-85
2021/09/05 11:04:44;;;;;;;10.37;8.80;;;23.00;56.70;;;;;;6106377;23;20492;-84
2021/09/05 11:07:34;;;;;;;9.30;8.40;;;23.10;56.80;;;;;;6110705;23;20448;-84
2021/09/05 11:10:15;;;;;;;8.97;8.07;;;23.10;56.70;;;;;;6109450;23;20477;-84
2021/09/05 11:15:47;;;;;;;9.20;8.20;;;23.00;56.70;;;;;;6108162;23;20362;-84
2021/09/05 11:18:16;;;;;;;9.43;8.43;;;23.00;56.80;;;;;;6083405;23;20888;-84
2021/09/05 11:21:06;;;;;;;8.87;8.07;;;23.00;56.70;;;;;;6108642;23;20197;-85
2021/09/05 11:23:39;;;;;;;9.93;8.93;;;23.10;56.80;;;;;;6109204;23;20436;-85
2021/09/05 11:26:33;;;;;;;8.00;7.20;;;23.00;56.80;;;;;;6108384;23;20382;-85
2021/09/05 11:29:21;;;;;;;8.97;8.07;;;23.10;56.80;;;;;;6108699;23;20386;-84
2021/09/05 11:32:24;;;;;;;8.87;7.97;;;23.00;56.80;;;;;;6086395;23;20382;-84
2021/09/05 11:35:04;;;;;;;9.13;8.17;;;23.10;56.80;;;;;;6228675;23;20378;-84
2021/09/05 11:37:37;;;;;;;9.30;8.30;;;23.00;56.80;;;;;;6235740;23;20413;-83
2021/09/05 11:40:15;;;;;;;9.37;8.37;;;23.10;56.80;;;;;;6235420;23;20358;-85
2021/09/05 11:42:49;;;;;;;9.20;7.47;;;23.10;56.80;;;;;;6237093;23;20375;-84
2021/09/05 11:45:39;;;;;;;8.97;8.07;;;23.10;56.80;;;;;;6255069;23;20380;-86
2021/09/05 11:48:13;;;;;;;9.93;8.80;;;23.10;56.80;;;;;;6186497;23;20401;-88
2021/09/05 11:50:52;;;;;;;;;;;;;;;;;;;;;
2021/09/05 11:53:24;;;;;;;9.20;8.30;;;23.10;56.80;;;;;;6225867;23;20416;-86
2021/09/05 11:55:54;;;;;;;8.83;8.00;;;23.10;56.80;;;;;;6228967;23;20663;-87
2021/09/05 11:58:36;;;;;;;8.10;7.30;;;23.10;56.80;;;;;;6227479;23;20383;-88
2021/09/05 12:01:12;;;;;;;9.17;8.00;;;23.10;56.80;;;;;;6252205;23;20378;-88
2021/09/05 12:03:38;;;;;;;8.53;7.50;;;23.10;56.80;;;;;;6228012;23;20413;-88
2021/09/05 12:06:08;;;;;;;8.90;8.00;;;23.10;56.80;;;;;;6252964;23;20436;-87
2021/09/05 12:09:08;;;;;;;10.30;8.13;;;23.10;56.80;;;;;;6228611;23;20462;-88
2021/09/05 12:12:07;;;;;;;8.40;7.50;;;23.10;56.80;;;;;;6222570;23;20449;-88
2021/09/05 12:14:44;;;;;;;8.90;8.00;;;23.10;56.80;;;;;;6133079;23;20387;-87
2021/09/05 12:17:18;;;;;;;8.53;7.63;;;23.10;56.80;;;;;;6172510;23;20470;-88
2021/09/05 12:19:59;;;;;;;8.20;7.20;;;23.10;56.80;;;;;;6201082;23;20371;-88
2021/09/05 12:22:25;;;;;;;7.97;7.27;;;23.10;56.80;;;;;;6176544;23;20407;-87
2021/09/05 12:25:13;;;;;;;7.07;6.43;;;23.10;56.80;;;;;;6199909;23;20419;-87
2021/09/05 12:27:39;;;;;;;8.20;7.40;;;23.10;56.80;;;;;;6202150;23;20352;-88
2021/09/05 12:30:26;;;;;;;7.93;7.20;;;23.10;56.80;;;;;;6176059;23;20438;-88
2021/09/05 12:33:12;;;;;;;8.60;7.67;;;23.10;56.80;;;;;;6173809;23;20383;-88
2021/09/05 12:35:41;;;;;;;7.87;7.07;;;23.10;56.70;;;;;;6177357;23;20382;-88
2021/09/05 12:38:13;;;;;;;6.73;5.87;;;23.10;56.80;;;;;;6200317;23;20445;-88
2021/09/05 12:40:42;;;;;;;8.23;7.40;;;23.10;56.80;;;;;;6171497;23;20718;-87
2021/09/05 12:43:12;;;;;;;7.77;7.07;;;23.10;56.80;;;;;;6172338;23;20480;-88
2021/09/05 12:45:55;;;;;;;6.77;6.03;;;23.10;56.80;;;;;;6198278;23;20352;-88
2021/09/05 12:48:23;;;;;;;9.00;7.30;;;23.10;56.70;;;;;;6172670;23;20385;-88
2021/09/05 12:51:17;;;;;;;8.27;7.10;;;23.10;56.70;;;;;;6198398;23;20376;-88
2021/09/05 12:54:06;;;;;;;8.70;7.03;;;23.10;56.70;;;;;;6198334;23;20663;-88
2021/09/05 12:56:34;;;;;;;7.30;6.60;;;23.10;56.70;;;;;;6172268;23;20383;-87
2021/09/05 12:59:00;;;;;;;7.13;6.43;;;23.10;56.70;;;;;;6171900;23;20399;-88
2021/09/05 13:01:30;;;;;;;8.07;7.23;;;23.10;56.70;;;;;;6198330;23;20371;-87
2021/09/05 13:04:01;;;;;;;8.00;7.17;;;23.10;56.70;;;;;;6172040;23;20372;-88
2021/09/05 13:06:39;;;;;;;7.00;6.33;;;23.10;56.70;;;;;;6171801;23;20466;-88
2021/09/05 13:09:05;;;;;;;7.53;6.27;;;23.10;56.70;;;;;;6198209;23;20406;-88
2021/09/05 13:11:31;;;;;;;8.03;7.20;;;23.10;56.70;;;;;;6198911;23;20371;-87
2021/09/05 13:14:01;;;;;;;7.93;7.17;;;23.10;56.70;;;;;;6171575;23;20380;-87
2021/09/05 13:16:27;;;;;;;7.13;5.63;;;23.10;56.60;;;;;;6174115;23;20870;-86
2021/09/05 13:18:53;;;;;;;7.50;6.80;;;23.10;56.60;;;;;;6203416;23;20382;-87
2021/09/05 13:21:23;;;;;;;7.50;6.17;;;23.10;56.60;;;;;;6175445;23;20379;-87
2021/09/05 13:23:49;;;;;;;6.23;5.63;;;23.10;56.50;;;;;;6173063;23;20176;-87
2021/09/05 13:26:19;;;;;;;6.40;5.80;;;23.10;56.50;;;;;;6203352;23;20406;-87
2021/09/05 13:28:54;;;;;;;7.27;6.03;;;23.10;56.40;;;;;;6174794;23;20379;-87
2021/09/05 13:31:22;;;;;;;7.70;6.60;;;23.10;56.40;;;;;;6201346;23;20362;-87
2021/09/05 13:33:48;;;;;;;6.83;6.00;;;23.10;56.30;;;;;;6176784;23;20451;-87
2021/09/05 13:36:14;;;;;;;7.70;6.47;;;23.10;56.30;;;;;;6198956;23;20378;-87
2021/09/05 13:38:39;;;;;;;6.50;5.87;;;23.10;56.30;;;;;;6171146;23;20238;-87
2021/09/05 13:41:07;;;;;;;6.13;5.60;;;23.10;56.20;;;;;;6198166;23;20147;-88
2021/09/05 13:43:38;;;;;;;6.97;6.27;;;23.10;56.20;;;;;;6198331;23;20202;-87
2021/09/05 13:46:14;;;;;;;;;;;;;;;;;;;;;
2021/09/05 13:48:41;;;;;;;5.60;5.10;;;23.10;56.30;;;;;;6194408;23;20404;-87
2021/09/05 13:51:08;;;;;;;6.53;5.93;;;23.10;56.20;;;;;;6171976;23;20390;-87
2021/09/05 13:53:33;;;;;;;5.80;5.20;;;23.10;56.30;;;;;;6171765;23;20438;-87
2021/09/05 13:56:02;;;;;;;6.03;5.33;;;23.10;56.20;;;;;;6172645;23;20379;-87
2021/09/05 13:58:27;;;;;;;7.00;5.80;;;23.10;56.20;;;;;;6198397;23;20218;-87
2021/09/05 14:00:53;;;;;;;6.20;5.70;;;23.10;56.20;;;;;;6172181;23;20402;-88
2021/09/05 14:03:19;;;;;;;6.17;5.57;;;23.10;56.20;;;;;;6171528;23;20179;-87
2021/09/05 14:05:45;;;;;;;5.90;5.33;;;23.10;56.20;;;;;;6172567;23;20214;-87
2021/09/05 14:08:13;;;;;;;6.20;5.03;;;23.10;56.10;;;;;;6172558;23;20158;-88
2021/09/05 14:10:39;;;;;;;5.60;5.10;;;23.10;56.10;;;;;;6172087;23;20171;-87
2021/09/05 14:13:05;;;;;;;6.67;5.20;;;23.10;56.00;;;;;;6198399;23;20418;-87
2021/09/05 14:15:30;;;;;;;6.90;6.10;;;23.10;56.00;;;;;;6173936;23;20242;-87
2021/09/05 14:17:56;;;;;;;5.57;5.03;;;23.10;56.00;;;;;;6171836;23;20159;-87
2021/09/05 14:20:22;;;;;;;5.77;5.13;;;23.10;55.90;;;;;;6197437;23;20152;-87
2021/09/05 14:22:47;;;;;;;6.50;5.60;;;23.10;55.90;;;;;;6197699;23;20151;-87
2021/09/05 14:25:14;;;;;;;5.47;4.87;;;23.10;55.90;;;;;;6196438;23;20579;-87
2021/09/05 14:31:03;;;;;;;5.50;5.00;;;23.10;55.90;;;;;;6198212;23;20382;-87
2021/09/05 14:38:44;;;;;;;6.33;5.70;;;23.10;55.90;;;;;;6197800;23;20382;-87
2021/09/05 14:49:31;;;;;;;5.20;4.70;;;23.10;55.80;;;;;;6200486;23;20401;-87
2021/09/05 14:54:54;;;;;;;6.37;5.53;;;23.00;55.60;;;;;;6201511;23;20873;-87
2021/09/05 14:57:23;;;;;;;6.73;5.20;;;23.00;55.50;;;;;;6174197;23;20723;-87
2021/09/05 15:00:02;;;;;;;6.20;5.27;;;23.00;55.40;;;;;;6200018;23;20371;-87
2021/09/05 15:02:38;;;;;;;5.83;4.80;;;23.10;55.50;;;;;;6176611;23;20406;-87
2021/09/05 15:18:58;;;;;;;7.23;5.40;;;23.00;55.20;;;;;;6216086;23;20419;-87
2021/09/05 15:21:36;;;;;;;6.43;5.10;;;23.00;55.20;;;;;;6230693;23;20382;-87
2021/09/05 15:24:03;;;;;;;5.90;4.87;;;23.00;55.20;;;;;;6231075;23;20418;-87
2021/09/05 15:26:32;;;;;;;7.90;4.43;;;23.00;55.20;;;;;;6231445;23;20382;-87
2021/09/05 15:29:48;;;;;;;6.97;5.33;;;23.00;55.20;;;;;;6232276;23;20397;-87
2021/09/05 15:38:20;;;;;;;5.67;4.93;;;23.00;55.10;;;;;;6232063;23;20393;-87
2021/09/05 15:55:05;;;;;;;6.30;5.37;;;23.00;55.00;;;;;;6241868;23;20400;-87
2021/09/05 15:57:50;;;;;;;;;;;;;;;;;;;;;
2021/09/05 16:00:43;;;;;;;6.27;5.10;;;23.00;55.00;;;;;;6231153;23;20382;-87
2021/09/05 16:17:05;;;;;;;5.20;4.70;;;23.00;54.80;;;;;;6229374;23;20358;-86
2021/09/05 16:19:44;;;;;;;;;;;;;;;;;;;;;
2021/09/05 16:22:12;;;;;;;5.10;4.60;;;23.00;54.90;;;;;;6230032;23;20373;-86
2021/09/05 16:28:06;;;;;;;6.37;5.70;;;23.00;54.80;;;;;;6229335;23;20346;-86
2021/09/05 16:30:52;;;;;;;5.90;5.30;;;23.00;54.80;;;;;;6228809;23;20684;-86
2021/09/05 16:40:30;;;;;;;5.30;4.60;;;23.00;54.80;;;;;;6111255;23;20442;-87